Latest Weather Observations for Lord Howe Island Windy Point

IDN60801

Issued at 5:22 am EST Sunday 22 September 2019 (issued every 10 minutes, with the page automatically refreshed every 10 minutes)

About weather observations | Map of weather stations | Latest weather observations for NSW | Other Formats
Station Details ID: 200715 Name: LORD HOWE ISLAND WINDY POINT Lat: -31.54 Lon: 159.07 Height: 4.0 m
Data from the previous 72 hours. | See also: Recent months at Lord Howe Island Windy Point
Date/Time
EST
Temp
°C
App
Temp
°C
Dew
Point
°C
Rel
Hum
%
Delta-T
°C
Wind Press
QNH
hPa
Press
MSL
hPa
Rain since
9am
mm
Dir  Spd
km/h
Gust
km/h
Spd
kts
Gust
kts
22/05:00am - - - - - N 15 30 8 16 - - -
22/04:30am - - - - - NNE 20 41 11 22 - - -
22/04:00am - - - - - NNE 19 33 10 18 - - -
22/03:30am - - - - - NNE 20 39 11 21 - - -
22/03:00am - - - - - NNE 22 35 12 19 - - -
22/02:30am - - - - - NNE 20 44 11 24 - - -
22/02:00am - - - - - NNE 20 39 11 21 - - -
22/01:30am - - - - - NNE 24 41 13 22 - - -
22/01:00am - - - - - NNE 20 35 11 19 - - -
22/12:30am - - - - - NNE 19 33 10 18 - - -
22/12:00am - - - - - NNE 22 37 12 20 - - -
 
Date/Time
EST
Temp
°C
App
Temp
°C
Dew
Point
°C
Rel
Hum
%
Delta-T
°C
Wind Press
QNH
hPa
Press
MSL
hPa
Rain since
9am
mm
Dir  Spd
km/h
Gust
km/h
Spd
kts
Gust
kts
21/11:30pm - - - - - NNE 19 43 10 23 - - -
21/11:00pm - - - - - NNE 24 43 13 23 - - -
21/10:30pm - - - - - N 19 32 10 17 - - -
21/10:00pm - - - - - E 22 37 12 20 - - -
21/09:30pm - - - - - E 17 33 9 18 - - -
21/09:00pm - - - - - ENE 13 28 7 15 - - -
21/08:30pm - - - - - E 13 24 7 13 - - -
21/08:00pm - - - - - E 20 41 11 22 - - -
21/07:30pm - - - - - ENE 13 30 7 16 - - -
21/07:00pm - - - - - E 17 32 9 17 - - -
21/06:30pm - - - - - ENE 17 35 9 19 - - -
21/06:00pm - - - - - E 30 44 16 24 - - -
21/05:30pm - - - - - E 30 44 16 24 - - -
21/05:15pm - - - - - E 28 46 15 25 - - -
21/05:00pm - - - - - E 17 28 9 15 - - -
21/04:30pm - - - - - E 22 41 12 22 - - -
21/04:00pm - - - - - ENE 28 43 15 23 - - -
21/03:30pm - - - - - E 26 41 14 22 - - -
21/03:00pm - - - - - ENE 30 43 16 23 - - -
21/02:30pm - - - - - ENE 26 44 14 24 - - -
21/02:00pm - - - - - ENE 28 44 15 24 - - -
21/01:30pm - - - - - ENE 28 37 15 20 - - -
21/01:00pm - - - - - ENE 28 37 15 20 - - -
21/12:30pm - - - - - ENE 24 33 13 18 - - -
21/12:00pm - - - - - ENE 26 32 14 17 - - -
21/11:30am - - - - - ENE 28 37 15 20 - - -
21/11:00am - - - - - ENE 28 33 15 18 - - -
21/10:30am - - - - - ENE 28 35 15 19 - - -
21/10:00am - - - - - ENE 28 35 15 19 - - -
21/09:30am - - - - - ENE 32 39 17 21 - - -
21/09:00am - - - - - ENE 30 37 16 20 - - -
21/08:30am - - - - - ENE 28 37 15 20 - - -
21/08:00am - - - - - ENE 30 39 16 21 - - -
21/07:30am - - - - - ENE 28 37 15 20 - - -
21/07:00am - - - - - ENE 28 41 15 22 - - -
21/06:30am - - - - - ENE 30 39 16 21 - - -
21/06:00am - - - - - ENE 28 37 15 20 - - -
21/05:30am - - - - - ENE 30 39 16 21 - - -
21/05:00am - - - - - ENE 30 43 16 23 - - -
21/04:30am - - - - - ENE 30 39 16 21 - - -
21/04:00am - - - - - ENE 32 41 17 22 - - -
21/03:30am - - - - - ENE 30 43 16 23 - - -
21/03:00am - - - - - ENE 32 43 17 23 - - -
21/02:30am - - - - - ENE 33 44 18 24 - - -
21/02:00am - - - - - ENE 32 43 17 23 - - -
21/01:30am - - - - - ENE 32 43 17 23 - - -
21/01:00am - - - - - ENE 30 41 16 22 - - -
21/12:30am - - - - - ENE 32 41 17 22 - - -
21/12:00am - - - - - ENE 32 41 17 22 - - -
 
Date/Time
EST
Temp
°C
App
Temp
°C
Dew
Point
°C
Rel
Hum
%
Delta-T
°C
Wind Press
QNH
hPa
Press
MSL
hPa
Rain since
9am
mm
Dir  Spd
km/h
Gust
km/h
Spd
kts
Gust
kts
20/11:30pm - - - - - ENE 33 43 18 23 - - -
20/11:00pm - - - - - ENE 35 46 19 25 - - -
20/10:30pm - - - - - ENE 35 44 19 24 - - -
20/10:00pm - - - - - ENE 35 44 19 24 - - -
20/09:30pm - - - - - ENE 35 46 19 25 - - -
20/09:00pm - - - - - ENE 35 43 19 23 - - -
20/08:30pm - - - - - ENE 35 46 19 25 - - -
20/08:00pm - - - - - ENE 35 44 19 24 - - -
20/07:30pm - - - - - ENE 33 44 18 24 - - -
20/07:00pm - - - - - E 30 39 16 21 - - -
20/06:30pm - - - - - ENE 32 41 17 22 - - -
20/06:00pm - - - - - E 32 41 17 22 - - -
20/05:30pm - - - - - E 32 39 17 21 - - -
20/05:00pm - - - - - E 33 43 18 23 - - -
20/04:30pm - - - - - E 32 43 17 23 - - -
20/04:00pm - - - - - E 32 43 17 23 - - -
20/03:30pm - - - - - ENE 32 39 17 21 - - -
20/03:00pm - - - - - E 32 39 17 21 - - -
20/02:30pm - - - - - ENE 28 35 15 19 - - -
20/02:00pm - - - - - ENE 28 37 15 20 - - -
20/01:30pm - - - - - ENE 28 35 15 19 - - -
20/01:00pm - - - - - E 30 37 16 20 - - -
20/12:30pm - - - - - ENE 32 41 17 22 - - -
20/12:00pm - - - - - ENE 30 37 16 20 - - -
20/11:30am - - - - - E 33 41 18 22 - - -
20/11:00am - - - - - E 30 39 16 21 - - -
20/10:30am - - - - - ENE 33 41 18 22 - - -
20/10:00am - - - - - ENE 33 41 18 22 - - -
20/09:30am - - - - - E 33 43 18 23 - - -
20/09:00am - - - - - E 35 43 19 23 - - -
20/08:30am - - - - - E 41 48 22 26 - - -
20/08:00am - - - - - E 32 41 17 22 - - -
20/07:30am - - - - - ENE 33 41 18 22 - - -
20/07:00am - - - - - ENE 35 44 19 24 - - -
20/06:30am - - - - - ENE 35 46 19 25 - - -
20/06:00am - - - - - ENE 35 48 19 26 - - -
20/05:30am - - - - - ENE 35 48 19 26 - - -
20/05:00am - - - - - ENE 32 43 17 23 - - -
20/04:33am - - - - - ENE 28 50 15 27 - - -
20/04:30am - - - - - ENE 20 44 11 24 - - -
20/04:00am - - - - - ENE 15 39 8 21 - - -
20/03:30am - - - - - NE 20 46 11 25 - - -
20/03:14am - - - - - ENE 30 48 16 26 - - -
20/03:00am - - - - - ENE 32 43 17 23 - - -
20/02:30am - - - - - ENE 28 39 15 21 - - -
20/02:00am - - - - - ENE 19 37 10 20 - - -
20/01:44am - - - - - E 28 46 15 25 - - -
20/01:30am - - - - - ENE 35 48 19 26 - - -
20/01:00am - - - - - ENE 32 43 17 23 - - -
20/12:30am - - - - - ENE 32 39 17 21 - - -
20/12:00am - - - - - ENE 30 37 16 20 - - -
 
Date/Time
EST
Temp
°C
App
Temp
°C
Dew
Point
°C
Rel
Hum
%
Delta-T
°C
Wind Press
QNH
hPa
Press
MSL
hPa
Rain since
9am
mm
Dir  Spd
km/h
Gust
km/h
Spd
kts
Gust
kts
19/11:30pm - - - - - ENE 33 44 18 24 - - -
19/11:00pm - - - - - ENE 30 39 16 21 - - -
19/10:30pm - - - - - ENE 30 39 16 21 - - -
19/10:00pm - - - - - E 28 37 15 20 - - -
19/09:30pm - - - - - E 32 39 17 21 - - -
19/09:10pm - - - - - E 32 50 17 27 - - -
19/09:00pm - - - - - E 33 44 18 24 - - -
19/08:30pm - - - - - ENE 33 44 18 24 - - -
19/08:00pm - - - - - ENE 33 44 18 24 - - -
19/07:30pm - - - - - ENE 35 44 19 24 - - -
19/07:00pm - - - - - E 33 44 18 24 - - -
19/06:30pm - - - - - E 33 41 18 22 - - -
19/06:00pm - - - - - ENE 35 43 19 23 - - -
19/05:30pm - - - - - ENE 33 44 18 24 - - -
19/05:00pm - - - - - E 33 43 18 23 - - -
19/04:30pm - - - - - ENE 33 43 18 23 - - -
19/04:00pm - - - - - ENE 32 41 17 22 - - -
19/03:30pm - - - - - ENE 32 41 17 22 - - -
19/03:00pm - - - - - ENE 32 39 17 21 - - -
19/02:30pm - - - - - ENE 32 41 17 22 - - -
19/02:00pm - - - - - ENE 32 41 17 22 - - -
19/01:30pm - - - - - ENE 28 37 15 20 - - -
19/01:00pm - - - - - ENE 28 33 15 18 - - -
19/12:30pm - - - - - ENE 28 35 15 19 - - -
19/12:00pm - - - - - ENE 28 37 15 20 - - -
19/11:30am - - - - - ENE 30 39 16 21 - - -
19/11:00am - - - - - E 28 39 15 21 - - -
19/10:30am - - - - - ENE 35 41 19 22 - - -
19/10:00am - - - - - ENE 32 39 17 21 - - -
19/09:30am - - - - - ENE 32 41 17 22 - - -
19/09:00am - - - - - ENE 32 41 17 22 - - -
19/08:30am - - - - - ENE 30 39 16 21 - - -
19/08:00am - - - - - ENE 32 41 17 22 - - -
19/07:30am - - - - - ENE 32 43 17 23 - - -
19/07:00am - - - - - ENE 32 41 17 22 - - -
19/06:30am - - - - - ENE 30 39 16 21 - - -
19/06:00am - - - - - ENE 30 39 16 21 - - -
19/05:30am - - - - - ENE 28 37 15 20 - - -

Other formats

Comma delimited format used in spreadsheet applications
http://www.bom.gov.au/fwo/IDN60801/IDN60801.95995.axf

JavaScript Object Notation format (JSON) in row-major order
http://www.bom.gov.au/fwo/IDN60801/IDN60801.95995.json

Data quality

Most of these data are generated automatically and are frequently updated. Quality checks on data are not normally performed. It is possible for incorrect values to appear. Refer to information at About Latest Weather Observations and please check the disclaimer before using these data.